createdAt,value
2022-12-15T00:02:14.370Z,20.80
2022-12-15T00:05:00.622Z,21.15
2022-12-15T00:07:46.592Z,19.92
2022-12-15T00:10:32.498Z,20.20
2022-12-15T00:13:18.500Z,21.38
2022-12-15T00:16:06.594Z,20.98
2022-12-15T00:18:53.259Z,20.35
2022-12-15T00:21:39.037Z,20.98
2022-12-15T00:24:25.400Z,20.88
2022-12-15T00:27:11.503Z,20.83
2022-12-15T00:29:57.243Z,20.08
2022-12-15T00:32:43.068Z,20.52
2022-12-15T00:35:29.093Z,21.00
2022-12-15T00:38:15.494Z,21.67
2022-12-15T00:40:42.775Z,21.17
2022-12-15T00:43:12.672Z,21.13
2022-12-15T00:45:58.890Z,21.55
2022-12-15T00:48:26.437Z,21.63
2022-12-15T00:50:54.102Z,21.05
2022-12-15T00:53:43.220Z,21.27
2022-12-15T00:56:30.344Z,20.98
2022-12-15T00:59:16.508Z,21.33
2022-12-15T01:02:02.635Z,21.05
2022-12-15T01:04:48.444Z,21.13
2022-12-15T01:07:35.357Z,20.40
2022-12-15T01:10:22.046Z,19.90
2022-12-15T01:13:07.670Z,20.15
2022-12-15T01:15:57.665Z,20.23
2022-12-15T01:18:44.412Z,19.63
2022-12-15T01:21:17.281Z,18.90
2022-12-15T01:23:45.442Z,19.00
2022-12-15T01:26:13.730Z,19.83
2022-12-15T01:28:40.977Z,19.35
2022-12-15T01:31:12.510Z,20.35
2022-12-15T01:33:45.375Z,21.25
2022-12-15T01:36:13.823Z,20.55
2022-12-15T01:38:41.044Z,20.40
2022-12-15T01:41:12.539Z,20.80
2022-12-15T01:43:42.624Z,20.92
2022-12-15T01:46:19.170Z,21.10
2022-12-15T01:48:58.020Z,21.00
2022-12-15T01:51:39.615Z,22.23
2022-12-15T01:54:32.436Z,21.70
2022-12-15T01:57:15.605Z,20.40
2022-12-15T01:59:51.122Z,22.30
2022-12-15T02:02:22.928Z,21.02
2022-12-15T02:04:54.724Z,20.55
2022-12-15T02:07:22.454Z,20.95
2022-12-15T02:09:52.433Z,22.20
2022-12-15T02:13:08.362Z,21.17
2022-12-15T02:15:53.932Z,21.58
2022-12-15T02:18:52.192Z,21.55
2022-12-15T02:21:32.798Z,21.70
2022-12-15T02:24:53.524Z,20.70
2022-12-15T02:27:51.029Z,21.77
2022-12-15T02:31:08.849Z,21.35
2022-12-15T02:33:47.003Z,20.15
2022-12-15T02:36:35.479Z,20.67
2022-12-15T02:39:05.819Z,21.10
2022-12-15T02:41:43.169Z,19.08
2022-12-15T02:44:22.895Z,20.17
2022-12-15T02:47:05.668Z,20.35
2022-12-15T02:49:50.592Z,20.33
2022-12-15T02:52:38.725Z,20.27
2022-12-15T02:55:35.548Z,20.38
2022-12-15T02:58:10.731Z,20.63
2022-12-15T03:00:48.752Z,21.75
2022-12-15T03:03:21.291Z,21.52
2022-12-15T03:05:55.697Z,19.40
2022-12-15T03:10:56.003Z,20.48
2022-12-15T03:13:26.256Z,22.58
2022-12-15T03:15:56.624Z,24.48
2022-12-15T03:18:25.200Z,25.75
2022-12-15T03:20:53.733Z,22.02
2022-12-15T03:23:23.497Z,18.98
2022-12-15T03:25:55.543Z,19.67
2022-12-15T03:28:25.135Z,21.40
2022-12-15T03:33:42.124Z,19.75
2022-12-15T03:36:12.940Z,19.85
2022-12-15T03:38:41.843Z,21.30
2022-12-15T03:41:09.947Z,21.67
2022-12-15T03:43:41.012Z,27.50
2022-12-15T03:46:10.889Z,28.50
2022-12-15T03:48:39.183Z,24.30
2022-12-15T03:51:10.793Z,22.90
2022-12-15T03:53:41.077Z,22.55
2022-12-15T03:56:14.822Z,20.27
2022-12-15T03:58:42.541Z,20.30
2022-12-15T04:01:32.598Z,20.33
2022-12-15T04:04:05.569Z,20.83
2022-12-15T04:06:36.108Z,20.60
2022-12-15T04:09:07.881Z,21.33
2022-12-15T04:11:35.291Z,20.27
2022-12-15T04:14:04.882Z,21.35
2022-12-15T04:16:33.604Z,21.50
2022-12-15T04:19:21.193Z,21.73
2022-12-15T04:21:51.302Z,21.58
2022-12-15T04:24:38.224Z,20.67
2022-12-15T04:27:24.074Z,20.73
2022-12-15T04:30:12.461Z,20.67
2022-12-15T04:33:02.929Z,23.90
2022-12-15T04:35:55.722Z,24.27
2022-12-15T04:38:50.088Z,21.60
2022-12-15T04:41:39.929Z,22.23
2022-12-15T04:46:59.581Z,23.98
2022-12-15T04:49:46.854Z,25.55
2022-12-15T04:52:34.965Z,26.33
2022-12-15T04:55:21.073Z,26.02
2022-12-15T04:58:07.162Z,26.25
2022-12-15T05:00:53.435Z,26.10
2022-12-15T05:03:39.496Z,26.17
2022-12-15T05:06:26.387Z,25.58
2022-12-15T05:09:13.162Z,27.65
2022-12-15T05:12:00.524Z,25.83
2022-12-15T05:14:49.514Z,28.73
2022-12-15T05:17:41.307Z,25.67
2022-12-15T05:20:29.037Z,25.55
2022-12-15T05:23:18.089Z,26.05
2022-12-15T05:26:05.905Z,26.25
2022-12-15T05:28:53.046Z,26.90
2022-12-15T05:31:39.836Z,26.42
2022-12-15T05:34:16.255Z,27.27
2022-12-15T05:36:46.477Z,27.55
2022-12-15T05:39:17.567Z,26.77
2022-12-15T05:41:47.604Z,27.33
2022-12-15T05:44:17.669Z,26.58
2022-12-15T05:46:46.475Z,25.73
2022-12-15T05:49:19.080Z,25.15
2022-12-15T05:54:34.134Z,25.50
2022-12-15T05:57:06.590Z,24.58
2022-12-15T06:00:29.446Z,27.33
2022-12-15T06:03:01.600Z,26.65
2022-12-15T06:06:32.237Z,28.05
2022-12-15T06:25:17.555Z,25.90
2022-12-15T06:27:45.971Z,24.63
2022-12-15T06:30:16.257Z,26.95
2022-12-15T06:32:43.707Z,27.88
2022-12-15T06:35:13.215Z,25.27
2022-12-15T06:37:41.653Z,24.58
2022-12-15T06:40:11.702Z,23.67
2022-12-15T06:42:40.254Z,23.67
2022-12-15T06:45:10.804Z,25.50
2022-12-15T06:47:41.242Z,23.02
2022-12-15T06:50:10.190Z,22.40
2022-12-15T06:52:42.326Z,22.83
2022-12-15T06:58:22.963Z,24.02
2022-12-15T07:00:51.327Z,25.73
2022-12-15T07:03:30.548Z,24.92
2022-12-15T07:09:23.201Z,24.63
2022-12-15T07:11:52.645Z,25.77
2022-12-15T07:14:21.826Z,25.27
2022-12-15T07:16:49.805Z,24.35
2022-12-15T07:19:21.483Z,23.95
2022-12-15T07:21:51.028Z,24.70
2022-12-15T07:24:22.654Z,24.00
2022-12-15T07:29:30.389Z,24.73
2022-12-15T07:32:03.984Z,24.48
2022-12-15T07:34:32.750Z,23.98
2022-12-15T07:37:04.178Z,24.75
2022-12-15T07:39:31.978Z,26.02
2022-12-15T07:42:02.330Z,25.50
2022-12-15T07:44:29.746Z,22.42
2022-12-15T07:47:01.706Z,21.27
2022-12-15T08:36:13.973Z,32.15
2022-12-15T08:38:46.364Z,28.60
2022-12-15T08:41:27.685Z,30.60
2022-12-15T08:43:58.775Z,28.08
2022-12-15T08:46:34.903Z,31.52
2022-12-15T08:49:05.507Z,31.55
2022-12-15T08:51:34.680Z,30.77
2022-12-15T08:54:02.707Z,32.65
2022-12-15T08:56:31.645Z,31.20
2022-12-15T08:59:02.252Z,28.67
2022-12-15T09:01:34.520Z,28.75
2022-12-15T09:04:05.172Z,27.88
2022-12-15T09:06:37.575Z,28.13
2022-12-15T09:09:12.915Z,27.38
2022-12-15T09:11:42.869Z,28.42
2022-12-15T09:14:14.586Z,28.23
2022-12-15T09:16:43.828Z,27.10
2022-12-15T09:19:12.309Z,27.60
2022-12-15T09:21:45.430Z,29.10
2022-12-15T09:24:23.260Z,26.15
2022-12-15T09:26:57.654Z,26.95
2022-12-15T09:29:26.976Z,27.23
2022-12-15T09:32:00.669Z,27.15
2022-12-15T09:34:30.418Z,26.98
2022-12-15T09:36:58.685Z,27.25
2022-12-15T09:39:27.285Z,28.90
2022-12-15T09:42:00.889Z,29.73
2022-12-15T09:44:30.906Z,28.08
2022-12-15T09:47:16.621Z,27.88
2022-12-15T09:50:06.462Z,29.20
2022-12-15T09:52:50.596Z,29.38
2022-12-15T09:55:46.747Z,29.73
2022-12-15T09:59:10.771Z,28.58
2022-12-15T10:02:13.307Z,28.83
2022-12-15T10:05:29.911Z,27.50
2022-12-15T10:08:05.690Z,28.73
2022-12-15T10:10:46.871Z,30.05
2022-12-15T10:13:25.422Z,27.92
2022-12-15T10:16:03.624Z,29.02
2022-12-15T10:18:50.361Z,29.00
2022-12-15T10:21:17.772Z,29.02
2022-12-15T10:23:45.941Z,29.55
2022-12-15T10:26:27.136Z,27.73
2022-12-15T10:29:15.795Z,28.35
2022-12-15T10:31:51.687Z,29.65
2022-12-15T10:34:28.550Z,30.05
2022-12-15T10:36:57.598Z,29.75
2022-12-15T10:39:39.883Z,30.80
2022-12-15T10:42:28.672Z,30.33
2022-12-15T10:45:00.272Z,30.10
2022-12-15T10:47:34.933Z,29.88
2022-12-15T10:50:26.884Z,30.38
2022-12-15T10:52:54.189Z,30.60
2022-12-15T10:55:43.813Z,28.73
2022-12-15T10:58:24.972Z,29.00
2022-12-15T11:01:17.118Z,28.55
2022-12-15T11:03:46.019Z,28.98
2022-12-15T11:06:20.019Z,27.83
2022-12-15T11:08:48.498Z,30.98
2022-12-15T11:11:50.335Z,29.13
2022-12-15T11:14:27.449Z,28.65
2022-12-15T11:16:58.067Z,26.48
2022-12-15T11:19:41.215Z,26.55
2022-12-15T11:22:28.584Z,27.23
2022-12-15T11:25:21.685Z,26.75
2022-12-15T11:27:51.706Z,27.90
2022-12-15T11:30:22.465Z,28.27
2022-12-15T11:32:55.777Z,26.52
2022-12-15T11:35:47.099Z,27.13
2022-12-15T11:38:33.506Z,28.75
2022-12-15T11:41:28.707Z,29.63
2022-12-15T11:44:16.409Z,26.88
2022-12-15T11:47:27.817Z,28.42
2022-12-15T11:50:27.531Z,28.88
2022-12-15T11:53:25.194Z,27.80
2022-12-15T11:55:58.492Z,27.02
2022-12-15T11:58:49.318Z,28.30
2022-12-15T12:02:00.716Z,28.48
2022-12-15T12:04:53.801Z,27.60
2022-12-15T12:07:58.615Z,29.10
2022-12-15T12:11:18.397Z,28.33
2022-12-15T15:44:16.951Z,33.92
2022-12-15T16:12:01.833Z,34.90
2022-12-15T16:25:50.504Z,35.00
2022-12-15T16:28:23.539Z,33.75
2022-12-15T16:30:51.560Z,32.92
2022-12-15T16:36:18.885Z,31.30
2022-12-15T16:38:51.799Z,29.27
2022-12-15T16:41:33.515Z,31.13
2022-12-15T16:46:48.873Z,30.63
2022-12-15T17:11:23.960Z,37.13
2022-12-15T17:22:41.117Z,34.35
2022-12-15T18:42:20.831Z,34.47
2022-12-15T18:47:55.202Z,34.30
2022-12-15T18:50:28.152Z,34.90
2022-12-15T18:53:58.777Z,37.10
2022-12-15T23:58:05.892Z,33.92
